createdAt,value
2023-04-27T00:01:46.736Z,18.35
2023-04-27T00:04:14.586Z,18.67
2023-04-27T00:06:42.247Z,18.08
2023-04-27T00:09:09.309Z,18.70
2023-04-27T00:11:36.358Z,18.08
2023-04-27T00:14:03.707Z,18.45
2023-04-27T00:16:30.975Z,18.27
2023-04-27T00:18:58.057Z,18.17
2023-04-27T00:21:27.768Z,18.65
2023-04-27T00:23:55.296Z,18.60
2023-04-27T00:26:22.711Z,18.20
2023-04-27T00:28:50.650Z,18.48
2023-04-27T00:31:19.129Z,18.23
2023-04-27T00:33:46.238Z,18.17
2023-04-27T00:36:13.520Z,18.50
2023-04-27T00:38:40.809Z,18.05
2023-04-27T00:41:09.931Z,17.80
2023-04-27T00:43:44.610Z,18.75
2023-04-27T00:46:13.914Z,18.60
2023-04-27T00:48:41.917Z,18.30
2023-04-27T00:51:09.136Z,18.52
2023-04-27T00:53:37.290Z,18.48
2023-04-27T00:56:06.624Z,19.20
2023-04-27T00:58:34.217Z,18.65
2023-04-27T01:01:01.742Z,18.63
2023-04-27T01:03:28.854Z,18.40
2023-04-27T01:05:56.929Z,18.40
2023-04-27T01:08:24.679Z,18.60
2023-04-27T01:10:52.089Z,18.65
2023-04-27T01:13:19.216Z,18.63
2023-04-27T01:15:46.182Z,18.33
2023-04-27T01:18:13.867Z,17.92
2023-04-27T01:20:42.424Z,18.13
2023-04-27T01:23:15.421Z,18.67
2023-04-27T01:25:44.043Z,18.08
2023-04-27T01:28:11.145Z,18.33
2023-04-27T01:30:38.207Z,18.08
2023-04-27T01:33:05.228Z,17.95
2023-04-27T01:35:32.326Z,18.20
2023-04-27T01:37:59.827Z,18.40
2023-04-27T01:40:26.832Z,18.80
2023-04-27T01:42:53.864Z,19.05
2023-04-27T01:45:22.245Z,18.55
2023-04-27T01:47:52.294Z,18.75
2023-04-27T01:50:19.710Z,18.30
2023-04-27T01:52:46.950Z,18.15
2023-04-27T01:55:15.547Z,18.33
2023-04-27T01:57:42.574Z,18.48
2023-04-27T02:00:11.208Z,18.30
2023-04-27T02:02:38.820Z,18.30
2023-04-27T02:05:06.850Z,17.85
2023-04-27T02:07:35.086Z,18.40
2023-04-27T02:10:02.412Z,17.90
2023-04-27T02:12:29.342Z,18.40
2023-04-27T02:14:56.426Z,18.48
2023-04-27T02:17:23.372Z,18.77
2023-04-27T02:19:50.331Z,18.33
2023-04-27T02:22:17.808Z,18.30
2023-04-27T02:24:44.813Z,18.52
2023-04-27T02:27:11.844Z,18.35
2023-04-27T02:29:40.439Z,18.17
2023-04-27T02:32:08.159Z,18.40
2023-04-27T02:34:35.300Z,19.52
2023-04-27T02:37:02.401Z,19.85
2023-04-27T02:39:29.571Z,18.98
2023-04-27T02:41:56.570Z,18.33
2023-04-27T02:44:23.615Z,18.45
2023-04-27T02:46:51.128Z,18.08
2023-04-27T02:49:18.274Z,17.90
2023-04-27T02:51:46.554Z,18.13
2023-04-27T02:54:14.724Z,18.17
2023-04-27T02:56:41.978Z,18.30
2023-04-27T02:59:09.140Z,18.27
2023-04-27T03:01:36.689Z,17.67
2023-04-27T03:04:06.705Z,17.80
2023-04-27T03:06:36.174Z,18.23
2023-04-27T03:09:03.857Z,17.60
2023-04-27T03:11:31.777Z,17.83
2023-04-27T03:14:02.978Z,17.98
2023-04-27T03:16:35.220Z,17.77
2023-04-27T03:19:02.183Z,17.85
2023-04-27T03:21:29.286Z,17.70
2023-04-27T03:23:57.334Z,17.25
2023-04-27T03:26:24.290Z,18.20
2023-04-27T03:28:51.397Z,17.98
2023-04-27T03:31:18.551Z,17.10
2023-04-27T03:33:45.646Z,17.60
2023-04-27T03:36:14.154Z,17.88
2023-04-27T03:38:42.066Z,17.52
2023-04-27T03:41:09.117Z,16.95
2023-04-27T03:43:37.562Z,17.40
2023-04-27T03:46:04.703Z,17.83
2023-04-27T03:48:32.400Z,17.00
2023-04-27T03:51:01.405Z,17.08
2023-04-27T03:53:28.439Z,16.95
2023-04-27T03:55:55.561Z,17.20
2023-04-27T03:58:22.674Z,17.48
2023-04-27T04:00:49.934Z,17.52
2023-04-27T04:03:17.083Z,17.25
2023-04-27T04:05:47.327Z,17.33
2023-04-27T04:08:14.711Z,17.60
2023-04-27T04:10:41.945Z,17.10
2023-04-27T04:13:10.002Z,18.02
2023-04-27T04:15:38.484Z,17.60
2023-04-27T04:18:05.818Z,17.63
2023-04-27T04:20:35.349Z,16.90
2023-04-27T04:23:02.320Z,17.13
2023-04-27T04:25:39.555Z,16.33
2023-04-27T04:28:06.713Z,17.05
2023-04-27T04:30:34.905Z,16.58
2023-04-27T04:33:01.909Z,16.30
2023-04-27T04:35:29.844Z,16.52
2023-04-27T04:37:56.875Z,16.83
2023-04-27T04:40:23.988Z,17.02
2023-04-27T04:42:51.221Z,16.30
2023-04-27T04:45:18.249Z,16.08
2023-04-27T04:47:45.238Z,16.33
2023-04-27T04:50:13.249Z,16.10
2023-04-27T04:52:41.175Z,16.38
2023-04-27T04:55:08.540Z,16.42
2023-04-27T04:57:36.103Z,16.27
2023-04-27T05:00:04.034Z,16.08
2023-04-27T05:02:31.306Z,16.35
2023-04-27T05:04:58.551Z,16.23
2023-04-27T05:07:25.757Z,16.02
2023-04-27T05:09:53.429Z,16.52
2023-04-27T05:12:21.710Z,17.13
2023-04-27T05:14:51.368Z,17.70
2023-04-27T05:17:18.512Z,18.15
2023-04-27T05:19:45.580Z,18.30
2023-04-27T05:22:12.573Z,17.58
2023-04-27T05:24:39.527Z,17.42
2023-04-27T05:27:06.613Z,16.73
2023-04-27T05:29:33.880Z,17.08
2023-04-27T05:32:02.746Z,16.45
2023-04-27T05:34:29.895Z,17.08
2023-04-27T05:36:57.067Z,17.15
2023-04-27T05:39:25.129Z,16.77
2023-04-27T05:41:56.947Z,16.90
2023-04-27T05:44:28.507Z,17.15
2023-04-27T05:46:58.516Z,17.08
2023-04-27T05:49:25.918Z,17.90
2023-04-27T05:51:53.827Z,16.90
2023-04-27T05:54:20.847Z,16.95
2023-04-27T05:56:47.968Z,16.80
2023-04-27T05:59:15.496Z,17.42
2023-04-27T06:01:42.952Z,17.20
2023-04-27T06:04:10.106Z,17.02
2023-04-27T06:06:37.250Z,16.95
2023-04-27T06:09:05.794Z,17.02
2023-04-27T06:11:32.730Z,16.52
2023-04-27T06:13:59.773Z,16.77
2023-04-27T06:16:28.435Z,17.08
2023-04-27T06:18:55.604Z,17.38
2023-04-27T06:21:22.660Z,17.35
2023-04-27T06:23:49.791Z,17.67
2023-04-27T06:26:18.432Z,16.33
2023-04-27T06:28:45.581Z,17.10
2023-04-27T06:31:13.948Z,16.17
2023-04-27T06:33:41.500Z,16.58
2023-04-27T06:36:08.851Z,15.95
2023-04-27T06:38:36.346Z,16.05
2023-04-27T06:41:03.422Z,16.42
2023-04-27T06:43:31.197Z,16.38
2023-04-27T06:45:58.264Z,16.35
2023-04-27T06:48:25.717Z,17.20
2023-04-27T06:50:52.778Z,15.70
2023-04-27T06:53:20.313Z,16.92
2023-04-27T06:55:48.583Z,16.25
2023-04-27T06:58:15.695Z,15.98
2023-04-27T07:00:44.069Z,16.60
2023-04-27T07:03:11.401Z,16.67
2023-04-27T07:05:38.852Z,17.08
2023-04-27T07:08:08.547Z,16.83
2023-04-27T07:10:37.313Z,16.35
2023-04-27T07:13:05.169Z,16.02
2023-04-27T07:15:33.257Z,16.25
2023-04-27T07:18:00.284Z,17.08
2023-04-27T07:20:27.346Z,17.17
2023-04-27T07:22:55.199Z,17.50
2023-04-27T07:25:22.772Z,16.88
2023-04-27T07:27:49.742Z,16.17
2023-04-27T07:30:18.199Z,16.98
2023-04-27T07:32:45.784Z,17.13
2023-04-27T07:35:15.315Z,16.77
2023-04-27T07:37:44.235Z,17.13
2023-04-27T07:40:16.750Z,17.52
2023-04-27T07:42:44.114Z,17.73
2023-04-27T07:45:11.311Z,17.10
2023-04-27T07:47:39.291Z,17.02
2023-04-27T07:50:10.609Z,18.17
2023-04-27T07:52:37.694Z,17.60
2023-04-27T07:55:04.930Z,16.95
2023-04-27T07:57:32.020Z,17.10
2023-04-27T07:59:59.168Z,16.95
2023-04-27T08:02:31.713Z,17.88
2023-04-27T08:05:02.685Z,17.33
2023-04-27T08:07:30.232Z,16.05
2023-04-27T08:09:57.543Z,16.73
2023-04-27T08:12:24.494Z,17.35
2023-04-27T08:14:51.748Z,17.40
2023-04-27T08:17:19.750Z,16.55
2023-04-27T08:19:46.697Z,16.80
2023-04-27T08:22:13.704Z,16.63
2023-04-27T08:24:40.726Z,16.95
2023-04-27T08:27:09.355Z,17.17
2023-04-27T08:29:36.324Z,16.48
2023-04-27T08:32:04.762Z,16.42
2023-04-27T08:34:32.215Z,17.30
2023-04-27T08:36:59.293Z,15.93
2023-04-27T08:39:26.401Z,16.27
2023-04-27T08:41:53.600Z,17.35
2023-04-27T08:44:20.890Z,16.98
2023-04-27T08:46:49.289Z,17.35
2023-04-27T08:49:17.173Z,17.15
2023-04-27T08:51:45.148Z,16.73
2023-04-27T08:54:12.298Z,17.48
2023-04-27T08:56:41.040Z,18.05
2023-04-27T08:59:15.813Z,17.33
2023-04-27T09:01:49.882Z,17.60
2023-04-27T09:04:18.603Z,17.15
2023-04-27T09:06:46.736Z,17.77
2023-04-27T09:09:23.758Z,17.35
2023-04-27T09:11:51.598Z,17.85
2023-04-27T09:14:21.144Z,18.02
2023-04-27T09:16:59.118Z,18.38
2023-04-27T09:19:29.093Z,17.38
2023-04-27T09:22:08.452Z,17.30
2023-04-27T09:24:36.053Z,16.42
2023-04-27T09:27:03.416Z,17.05
2023-04-27T09:29:40.976Z,17.52
2023-04-27T09:32:20.784Z,18.27
2023-04-27T09:34:48.092Z,19.20
2023-04-27T09:37:16.549Z,18.20
2023-04-27T09:39:44.144Z,18.55
2023-04-27T09:42:13.240Z,18.27
2023-04-27T09:44:40.154Z,17.80
2023-04-27T09:47:08.268Z,17.20
2023-04-27T09:49:36.227Z,17.00
2023-04-27T09:52:03.416Z,16.80
2023-04-27T09:54:33.915Z,18.52
2023-04-27T09:57:07.628Z,16.90
2023-04-27T09:59:58.728Z,17.55
2023-04-27T10:02:28.572Z,18.65
2023-04-27T10:05:23.935Z,18.38
2023-04-27T10:07:54.322Z,17.85
2023-04-27T10:10:21.541Z,18.23
2023-04-27T10:13:04.155Z,17.80
2023-04-27T10:15:32.797Z,18.55
2023-04-27T10:18:05.435Z,18.92
2023-04-27T10:20:36.433Z,18.40
2023-04-27T10:23:03.990Z,18.83
2023-04-27T10:25:40.924Z,18.65
2023-04-27T10:28:15.620Z,18.38
2023-04-27T10:30:49.586Z,18.77
2023-04-27T10:35:59.051Z,18.85
2023-04-27T10:38:30.848Z,19.13
2023-04-27T10:41:02.299Z,18.25
2023-04-27T10:43:31.415Z,18.50
2023-04-27T10:46:27.878Z,18.67
2023-04-27T10:48:56.014Z,19.08
2023-04-27T10:51:25.017Z,19.02
2023-04-27T10:53:53.974Z,19.10
2023-04-27T10:56:21.210Z,18.73
2023-04-27T10:58:49.481Z,19.08
2023-04-27T11:01:29.626Z,19.70
2023-04-27T11:03:58.079Z,19.10
2023-04-27T11:06:25.217Z,19.48
2023-04-27T11:08:52.331Z,18.77
2023-04-27T11:11:20.688Z,19.08
2023-04-27T11:13:53.990Z,19.92
2023-04-27T11:16:21.129Z,19.05
2023-04-27T11:18:48.405Z,18.38
2023-04-27T11:21:18.184Z,18.65
2023-04-27T11:23:45.259Z,19.30
2023-04-27T11:26:18.333Z,18.63
2023-04-27T11:28:58.369Z,19.70
2023-04-27T11:31:26.365Z,18.92
2023-04-27T11:33:56.006Z,18.50
2023-04-27T11:36:24.628Z,17.95
2023-04-27T11:38:57.238Z,18.48
2023-04-27T11:41:34.010Z,17.80
2023-04-27T11:44:09.155Z,18.45
2023-04-27T11:46:41.186Z,18.15
2023-04-27T11:49:11.315Z,17.75
2023-04-27T11:51:41.824Z,18.38
2023-04-27T11:54:10.008Z,17.50
2023-04-27T11:56:37.228Z,17.90
2023-04-27T11:59:05.385Z,19.55
2023-04-27T12:01:38.197Z,19.13
2023-04-27T12:04:06.080Z,18.20
2023-04-27T12:06:33.853Z,19.02
2023-04-27T12:09:01.460Z,18.23
2023-04-27T12:11:28.696Z,19.17
2023-04-27T12:13:56.163Z,20.05
2023-04-27T12:16:23.726Z,19.17
2023-04-27T12:18:51.484Z,18.77
2023-04-27T12:21:19.040Z,18.15
2023-04-27T12:23:46.050Z,19.02
2023-04-27T12:26:15.006Z,19.10
2023-04-27T12:28:42.790Z,18.80
2023-04-27T12:31:16.681Z,18.83
2023-04-27T12:33:43.863Z,18.30
2023-04-27T12:36:10.904Z,19.00
2023-04-27T12:38:40.027Z,19.52
2023-04-27T12:41:07.217Z,19.63
2023-04-27T12:43:36.361Z,19.73
2023-04-27T12:46:04.220Z,19.48
2023-04-27T12:48:32.063Z,19.98
2023-04-27T12:51:02.912Z,19.45
2023-04-27T12:53:31.129Z,18.88
2023-04-27T12:56:00.990Z,18.80
2023-04-27T12:58:28.215Z,19.08
2023-04-27T13:00:57.916Z,18.88
2023-04-27T13:03:25.496Z,18.95
2023-04-27T13:05:54.266Z,19.13
2023-04-27T13:08:21.493Z,19.67
2023-04-27T13:10:49.498Z,18.92
2023-04-27T13:13:16.619Z,19.77
2023-04-27T13:15:43.963Z,19.85
2023-04-27T13:18:10.956Z,19.30
2023-04-27T13:20:38.054Z,19.67
2023-04-27T13:23:06.832Z,19.90
2023-04-27T13:25:35.332Z,19.27
2023-04-27T13:28:02.517Z,19.30
2023-04-27T13:30:32.074Z,19.08
2023-04-27T13:33:10.484Z,19.40
2023-04-27T13:35:46.064Z,19.38
2023-04-27T13:38:14.174Z,19.00
2023-04-27T13:40:41.418Z,19.40
2023-04-27T13:43:08.995Z,20.20
2023-04-27T13:45:36.422Z,18.63
2023-04-27T13:48:03.512Z,17.95
2023-04-27T13:50:31.973Z,17.58
2023-04-27T13:53:00.130Z,18.00
2023-04-27T13:55:27.163Z,18.20
2023-04-27T13:57:54.106Z,17.20
2023-04-27T14:00:21.297Z,17.73
2023-04-27T14:02:49.554Z,18.23
2023-04-27T14:05:16.643Z,16.83
2023-04-27T14:07:45.205Z,18.08
2023-04-27T14:10:12.331Z,18.40
2023-04-27T14:12:39.399Z,18.00
2023-04-27T14:15:07.092Z,17.92
2023-04-27T14:17:36.160Z,18.38
2023-04-27T14:20:04.718Z,17.38
2023-04-27T14:22:35.995Z,18.65
2023-04-27T14:25:03.195Z,18.60
2023-04-27T14:27:30.258Z,18.00
2023-04-27T14:29:57.209Z,18.25
2023-04-27T14:32:24.292Z,17.90
2023-04-27T14:34:52.529Z,18.27
2023-04-27T14:37:21.584Z,18.70
2023-04-27T14:39:49.595Z,18.23
2023-04-27T14:42:16.580Z,21.05
2023-04-27T14:44:43.602Z,18.85
2023-04-27T14:47:10.981Z,18.00
2023-04-27T14:49:38.218Z,17.88
2023-04-27T14:52:06.861Z,17.70
2023-04-27T14:54:35.864Z,17.67
2023-04-27T14:57:04.720Z,17.50
2023-04-27T14:59:33.067Z,17.77
2023-04-27T15:02:00.684Z,16.23
2023-04-27T15:04:29.452Z,16.10
2023-04-27T15:06:56.706Z,16.75
2023-04-27T15:09:23.728Z,17.20
2023-04-27T15:11:52.884Z,18.10
2023-04-27T15:14:20.094Z,18.27
2023-04-27T15:16:47.159Z,17.45
2023-04-27T15:19:15.886Z,17.08
2023-04-27T15:21:43.429Z,17.73
2023-04-27T15:24:10.427Z,17.50
2023-04-27T15:26:37.392Z,18.30
2023-04-27T15:29:04.621Z,18.95
2023-04-27T15:31:31.647Z,18.63
2023-04-27T15:33:58.777Z,19.02
2023-04-27T15:36:28.691Z,18.83
2023-04-27T15:38:56.109Z,19.17
2023-04-27T15:41:23.151Z,19.38
2023-04-27T15:43:52.676Z,19.45
2023-04-27T15:46:20.112Z,18.98
2023-04-27T15:48:47.311Z,19.30
2023-04-27T15:51:14.273Z,18.88
2023-04-27T15:53:41.421Z,18.13
2023-04-27T15:56:08.561Z,18.42
2023-04-27T15:58:35.713Z,20.40
2023-04-27T16:01:03.841Z,18.27
2023-04-27T16:03:31.120Z,17.05
2023-04-27T16:05:59.703Z,16.85
2023-04-27T16:08:28.187Z,17.35
2023-04-27T16:10:55.253Z,18.08
2023-04-27T16:13:23.230Z,17.88
2023-04-27T16:15:50.245Z,17.77
2023-04-27T16:18:20.053Z,18.27
2023-04-27T16:20:47.400Z,19.13
2023-04-27T16:23:14.839Z,19.92
2023-04-27T16:25:42.129Z,19.08
2023-04-27T16:28:09.036Z,19.08
2023-04-27T16:30:38.668Z,18.77
2023-04-27T16:33:06.041Z,18.08
2023-04-27T16:35:34.089Z,18.38
2023-04-27T16:38:01.427Z,18.30
2023-04-27T16:40:28.537Z,18.95
2023-04-27T16:42:55.731Z,17.73
2023-04-27T16:45:23.005Z,17.30
2023-04-27T16:47:49.971Z,17.60
2023-04-27T16:50:17.457Z,17.80
2023-04-27T16:52:44.980Z,17.58
2023-04-27T16:55:11.977Z,17.55
2023-04-27T16:57:38.920Z,18.25
2023-04-27T17:00:06.707Z,16.88
2023-04-27T17:02:33.838Z,16.08
2023-04-27T17:05:01.419Z,16.13
2023-04-27T17:07:32.845Z,17.90
2023-04-27T17:10:00.384Z,18.45
2023-04-27T17:12:27.711Z,17.73
2023-04-27T17:14:54.751Z,17.15
2023-04-27T17:17:21.774Z,18.75
2023-04-27T17:19:48.856Z,18.75
2023-04-27T17:22:16.919Z,18.98
2023-04-27T17:24:43.890Z,19.33
2023-04-27T17:27:11.547Z,18.88
2023-04-27T17:29:38.489Z,18.70
2023-04-27T17:32:05.905Z,18.88
2023-04-27T17:34:33.324Z,19.10
2023-04-27T17:37:00.335Z,19.38
2023-04-27T17:39:27.430Z,19.23
2023-04-27T17:41:55.338Z,18.60
2023-04-27T17:44:22.422Z,18.73
2023-04-27T17:46:51.265Z,18.45
2023-04-27T17:49:19.446Z,18.60
2023-04-27T17:51:47.302Z,18.77
2023-04-27T17:54:14.273Z,18.20
2023-04-27T17:56:41.499Z,17.90
2023-04-27T17:59:11.425Z,18.15
2023-04-27T18:01:38.688Z,18.65
2023-04-27T18:04:07.500Z,18.08
2023-04-27T18:06:34.681Z,19.05
2023-04-27T18:09:01.884Z,18.20
2023-04-27T18:11:29.277Z,17.52
2023-04-27T18:13:58.047Z,17.67
2023-04-27T18:16:25.906Z,17.55
2023-04-27T18:18:52.878Z,18.00
2023-04-27T18:21:21.143Z,18.10
2023-04-27T18:23:48.216Z,18.48
2023-04-27T18:26:17.662Z,18.77
2023-04-27T18:28:44.738Z,19.48
2023-04-27T18:31:19.271Z,18.92
2023-04-27T18:33:47.253Z,19.20
2023-04-27T18:36:16.606Z,18.80
2023-04-27T18:38:43.951Z,18.98
2023-04-27T18:41:11.281Z,18.27
2023-04-27T18:43:38.263Z,18.20
2023-04-27T18:46:06.947Z,17.40
2023-04-27T18:48:34.915Z,17.45
2023-04-27T18:51:01.992Z,18.35
2023-04-27T18:53:29.011Z,18.45
2023-04-27T18:55:58.236Z,18.38
2023-04-27T18:58:25.370Z,18.00
2023-04-27T19:00:53.498Z,17.90
2023-04-27T19:03:20.705Z,17.70
2023-04-27T19:05:47.987Z,17.98
2023-04-27T19:08:16.897Z,17.85
2023-04-27T19:10:45.257Z,17.75
2023-04-27T19:13:12.430Z,18.40
2023-04-27T19:15:39.681Z,17.88
2023-04-27T19:18:11.039Z,17.83
2023-04-27T19:20:40.038Z,18.05
2023-04-27T19:23:09.997Z,19.38
2023-04-27T19:25:37.311Z,20.73
2023-04-27T19:28:04.810Z,20.23
2023-04-27T19:30:32.803Z,18.92
2023-04-27T19:32:59.829Z,18.42
2023-04-27T19:35:27.709Z,19.20
2023-04-27T19:37:55.001Z,18.85
2023-04-27T19:40:22.217Z,19.35
2023-04-27T19:42:49.910Z,18.58
2023-04-27T19:45:18.413Z,19.23
2023-04-27T19:47:48.334Z,19.80
2023-04-27T19:50:16.211Z,18.67
2023-04-27T19:52:43.373Z,18.10
2023-04-27T19:55:11.460Z,20.40
2023-04-27T19:57:38.874Z,20.45
2023-04-27T20:00:12.321Z,21.85
2023-04-27T20:02:40.343Z,21.08
2023-04-27T20:05:08.321Z,21.45
2023-04-27T20:07:35.947Z,21.52
2023-04-27T20:10:04.731Z,21.55
2023-04-27T20:12:51.439Z,20.90
2023-04-27T20:15:21.708Z,21.02
2023-04-27T20:17:50.191Z,21.08
2023-04-27T20:20:17.147Z,22.70
2023-04-27T20:22:44.463Z,20.15
2023-04-27T20:25:14.145Z,19.38
2023-04-27T20:27:41.958Z,20.15
2023-04-27T20:30:11.204Z,19.23
2023-04-27T20:32:40.934Z,19.20
2023-04-27T20:35:13.493Z,19.95
2023-04-27T20:37:44.316Z,20.65
2023-04-27T20:40:14.692Z,19.58
2023-04-27T20:42:43.627Z,20.05
2023-04-27T20:45:11.841Z,19.70
2023-04-27T20:47:38.879Z,19.65
2023-04-27T20:50:07.853Z,19.88
2023-04-27T20:52:35.174Z,20.55
2023-04-27T20:55:03.690Z,19.75
2023-04-27T20:57:31.146Z,20.40
2023-04-27T20:59:58.891Z,20.33
2023-04-27T21:02:26.774Z,20.75
2023-04-27T21:04:53.962Z,20.40
2023-04-27T21:07:21.039Z,20.67
2023-04-27T21:09:48.052Z,20.80
2023-04-27T21:12:17.325Z,19.90
2023-04-27T21:14:45.378Z,20.15
2023-04-27T21:17:15.278Z,20.90
2023-04-27T21:19:43.432Z,20.08
2023-04-27T21:22:10.552Z,20.17
2023-04-27T21:24:37.506Z,20.10
2023-04-27T21:27:04.606Z,20.90
2023-04-27T21:29:31.611Z,20.63
2023-04-27T21:31:58.680Z,20.48
2023-04-27T21:34:25.613Z,21.13
2023-04-27T21:36:54.244Z,21.60
2023-04-27T21:39:21.402Z,20.38
2023-04-27T21:41:48.297Z,20.73
2023-04-27T21:44:15.708Z,20.67
2023-04-27T21:46:42.910Z,20.65
2023-04-27T21:49:10.041Z,20.15
2023-04-27T21:51:37.057Z,20.13
2023-04-27T21:54:04.276Z,19.65
2023-04-27T21:56:31.333Z,20.23
2023-04-27T21:58:58.444Z,20.48
2023-04-27T22:01:27.831Z,20.55
2023-04-27T22:03:55.025Z,20.30
2023-04-27T22:06:22.174Z,20.77
2023-04-27T22:08:49.528Z,20.77
2023-04-27T22:11:16.796Z,20.33
2023-04-27T22:13:43.761Z,19.83
2023-04-27T22:16:13.157Z,20.08
2023-04-27T22:18:40.800Z,19.92
2023-04-27T22:21:08.523Z,20.40
2023-04-27T22:23:35.688Z,20.52
2023-04-27T22:26:04.254Z,19.88
2023-04-27T22:28:31.316Z,19.77
2023-04-27T22:30:58.344Z,20.10
2023-04-27T22:33:25.823Z,20.13
2023-04-27T22:35:53.075Z,20.50
2023-04-27T22:38:22.942Z,20.55
2023-04-27T22:40:50.173Z,20.15
2023-04-27T22:43:17.231Z,20.08
2023-04-27T22:45:44.220Z,20.42
2023-04-27T22:48:12.120Z,19.77
2023-04-27T22:50:40.633Z,20.00
2023-04-27T22:53:09.157Z,20.15
2023-04-27T22:55:36.126Z,18.90
2023-04-27T22:58:03.215Z,19.90
2023-04-27T23:00:31.913Z,19.40
2023-04-27T23:02:59.008Z,20.00
2023-04-27T23:05:26.521Z,19.95
2023-04-27T23:07:53.498Z,20.63
2023-04-27T23:10:20.909Z,19.75
2023-04-27T23:12:48.125Z,19.50
2023-04-27T23:15:15.318Z,20.63
2023-04-27T23:17:44.150Z,19.92
2023-04-27T23:20:24.510Z,20.02
2023-04-27T23:22:55.669Z,20.27
2023-04-27T23:25:22.765Z,19.20
2023-04-27T23:27:51.861Z,19.80
2023-04-27T23:30:20.056Z,19.63
2023-04-27T23:32:48.033Z,19.15
2023-04-27T23:35:16.642Z,20.13
2023-04-27T23:37:44.412Z,20.05
2023-04-27T23:40:12.487Z,19.55
2023-04-27T23:42:39.379Z,19.67
2023-04-27T23:45:06.870Z,19.42
2023-04-27T23:47:34.339Z,19.80
2023-04-27T23:50:03.015Z,19.63
2023-04-27T23:52:30.154Z,19.30
2023-04-27T23:54:58.115Z,19.42
2023-04-27T23:57:25.279Z,19.63
2023-04-27T23:59:52.303Z,19.40
